createdAt,value
2018-06-15T11:59:56.708Z,7.13
2018-06-15T12:02:24.787Z,6.00
2018-06-15T12:04:52.876Z,6.40
2018-06-15T12:07:20.972Z,6.97
2018-06-15T12:09:49.136Z,6.37
2018-06-15T12:12:17.217Z,6.17
2018-06-15T12:14:45.290Z,6.17
2018-06-15T12:17:13.407Z,5.40
2018-06-15T12:19:41.667Z,6.40
2018-06-15T12:22:10.461Z,6.30
2018-06-15T12:24:38.515Z,7.60
2018-06-15T12:27:06.746Z,6.58
2018-06-15T12:29:34.949Z,6.00
2018-06-15T12:32:03.052Z,6.60
2018-06-15T12:34:31.233Z,6.10
2018-06-15T12:36:59.317Z,6.30
2018-06-15T12:39:27.600Z,5.57
2018-06-15T12:41:55.839Z,6.60
2018-06-15T12:44:24.544Z,7.70
2018-06-15T12:46:52.924Z,6.80
2018-06-15T12:49:20.996Z,6.83
2018-06-15T12:51:49.133Z,6.20
2018-06-15T12:54:17.268Z,7.00
2018-06-15T12:56:45.401Z,6.50
2018-06-15T12:59:13.713Z,7.00
2018-06-15T13:01:41.913Z,6.42
2018-06-15T13:04:10.169Z,5.47
2018-06-15T13:06:38.473Z,5.83
2018-06-15T13:09:08.727Z,5.80
2018-06-15T13:11:36.805Z,6.00
2018-06-15T13:14:05.036Z,6.50
2018-06-15T13:16:33.136Z,6.90
2018-06-15T13:19:01.312Z,6.40
2018-06-15T13:21:29.820Z,6.50
2018-06-15T13:24:03.988Z,6.60
2018-06-15T13:26:32.060Z,5.67
2018-06-15T13:29:00.252Z,6.50
2018-06-15T13:31:28.387Z,6.72
2018-06-15T13:33:56.650Z,5.67
2018-06-15T13:36:25.020Z,6.83
2018-06-15T13:38:53.111Z,6.45
2018-06-15T13:41:21.174Z,7.20
2018-06-15T13:43:49.259Z,5.97
2018-06-15T13:46:17.405Z,6.28
2018-06-15T13:48:46.010Z,6.30
2018-06-15T13:51:14.389Z,6.67
2018-06-15T13:53:42.606Z,6.80
2018-06-15T13:56:10.896Z,6.10
2018-06-15T13:58:39.237Z,6.58
2018-06-15T14:03:59.788Z,6.10
2018-06-15T14:06:27.877Z,6.40
2018-06-15T14:08:56.316Z,7.03
2018-06-15T14:14:17.021Z,6.40
2018-06-15T14:16:45.312Z,6.20
2018-06-15T14:19:13.619Z,7.67
2018-06-15T14:21:41.696Z,6.10
2018-06-15T14:24:09.864Z,6.77
2018-06-15T14:26:38.063Z,6.47
2018-06-15T14:32:21.034Z,7.53
2018-06-15T14:34:50.006Z,6.80
2018-06-15T14:37:18.215Z,6.40
2018-06-15T14:39:46.332Z,6.83
2018-06-15T14:42:14.516Z,5.80
2018-06-15T14:44:42.684Z,6.33
2018-06-15T14:47:10.875Z,5.30
2018-06-15T14:49:39.101Z,5.03
2018-06-15T14:52:07.197Z,5.72
2018-06-15T14:54:35.947Z,5.70
2018-06-15T14:57:04.227Z,3.98
2018-06-15T14:59:32.752Z,4.97
2018-06-15T15:02:00.849Z,4.30
2018-06-15T15:04:28.952Z,5.43
2018-06-15T15:06:57.331Z,5.17
2018-06-15T15:09:25.679Z,5.73
2018-06-15T15:11:53.868Z,6.03
2018-06-15T15:14:21.964Z,5.00
2018-06-15T15:16:51.872Z,5.27
2018-06-15T15:19:19.995Z,5.53
2018-06-15T15:21:48.120Z,6.20
2018-06-15T15:24:16.258Z,6.37
2018-06-15T15:26:44.572Z,5.60
2018-06-15T15:32:06.118Z,5.58
2018-06-15T15:34:34.412Z,5.60
2018-06-15T15:37:02.649Z,5.67
2018-06-15T15:39:31.035Z,6.50
2018-06-15T15:44:51.595Z,6.50
2018-06-15T15:47:19.696Z,6.40
2018-06-15T15:49:48.009Z,7.05
2018-06-15T15:52:16.363Z,6.60
2018-06-15T15:54:44.565Z,6.60
2018-06-15T15:57:12.803Z,6.33
2018-06-15T15:59:41.085Z,6.50
2018-06-15T16:02:09.380Z,6.30
2018-06-15T16:04:37.792Z,6.23
2018-06-15T16:07:05.932Z,6.67
2018-06-15T16:09:34.003Z,6.00
2018-06-15T16:12:02.099Z,7.40
2018-06-15T16:14:30.480Z,6.17
2018-06-15T16:16:58.576Z,5.90
2018-06-15T16:19:26.683Z,6.20
2018-06-15T16:21:55.058Z,5.60
2018-06-15T16:24:23.581Z,5.50
2018-06-15T16:26:51.708Z,6.47
2018-06-15T16:29:20.757Z,5.15
2018-06-15T16:31:49.052Z,5.73
2018-06-15T16:34:17.127Z,5.33
2018-06-15T16:36:45.260Z,5.50
2018-06-15T16:39:13.327Z,5.10
2018-06-15T16:41:41.619Z,5.40
2018-06-15T16:44:09.697Z,5.53
2018-06-15T16:46:37.772Z,5.80
2018-06-15T16:49:05.840Z,6.00
2018-06-15T16:51:34.154Z,6.33
2018-06-15T16:54:02.213Z,6.33
2018-06-15T16:56:30.400Z,6.17
2018-06-15T16:58:58.496Z,6.33
2018-06-15T17:01:26.575Z,5.97
2018-06-15T17:03:54.767Z,6.00
2018-06-15T17:06:22.868Z,6.83
2018-06-15T17:08:50.953Z,6.97
2018-06-15T17:11:19.023Z,7.13
2018-06-15T17:13:47.204Z,6.87
2018-06-15T17:16:15.324Z,8.83
2018-06-15T17:18:43.422Z,7.50
2018-06-15T17:21:11.481Z,7.50
2018-06-15T17:23:39.788Z,8.07
2018-06-15T17:26:07.799Z,7.43
2018-06-15T17:28:35.884Z,7.40
2018-06-15T17:31:04.179Z,6.37
2018-06-15T17:33:32.276Z,7.97
2018-06-15T17:36:00.356Z,7.37
2018-06-15T17:38:28.577Z,7.43
2018-06-15T17:40:56.908Z,6.87
2018-06-15T17:43:25.106Z,8.23
2018-06-15T17:45:53.213Z,6.87
2018-06-15T17:48:21.304Z,7.30
2018-06-15T17:50:49.471Z,8.13
2018-06-15T17:53:17.787Z,6.93
2018-06-15T17:55:46.056Z,6.73
2018-06-15T17:58:14.334Z,7.23
2018-06-15T18:00:42.711Z,7.17
2018-06-15T18:03:10.878Z,6.27
2018-06-15T18:05:39.394Z,7.23
2018-06-15T18:08:07.992Z,6.97
2018-06-15T18:10:36.392Z,7.63
2018-06-15T18:13:04.689Z,7.03
2018-06-15T18:15:32.956Z,6.67
2018-06-15T18:18:01.926Z,6.70
2018-06-15T18:20:30.297Z,7.60
2018-06-15T18:22:58.517Z,8.20
2018-06-15T18:25:26.876Z,7.67
2018-06-15T18:27:55.396Z,7.37
2018-06-15T18:30:24.096Z,6.75
2018-06-15T18:32:52.207Z,7.63
2018-06-15T18:35:20.883Z,7.37
2018-06-15T18:37:49.139Z,6.87
2018-06-15T18:40:17.678Z,7.20
2018-06-15T18:42:46.020Z,7.70
2018-06-15T18:45:14.536Z,7.80
2018-06-15T18:47:42.688Z,7.40
2018-06-15T18:50:10.838Z,7.30
2018-06-15T18:52:39.616Z,7.50
2018-06-15T18:55:08.226Z,8.05
2018-06-15T18:57:36.555Z,8.60
2018-06-15T19:00:05.460Z,6.97
2018-06-15T19:02:33.903Z,8.27
2018-06-15T19:05:02.338Z,8.00
2018-06-15T19:07:30.518Z,8.70
2018-06-15T19:09:59.853Z,9.43
2018-06-15T19:12:30.296Z,10.00
2018-06-15T19:14:59.550Z,8.85
2018-06-15T19:17:28.600Z,9.40
2018-06-15T19:19:57.895Z,9.67
2018-06-15T19:22:26.049Z,8.43
2018-06-15T19:24:54.250Z,9.38
2018-06-15T19:27:22.439Z,9.10
2018-06-15T19:29:51.953Z,9.60
2018-06-15T19:32:21.355Z,8.90
2018-06-15T19:34:49.642Z,10.60
2018-06-15T19:37:18.134Z,9.83
2018-06-15T19:40:00.337Z,9.17
2018-06-15T19:42:28.496Z,9.30
2018-06-15T19:44:56.679Z,10.00
2018-06-15T19:47:25.568Z,10.70
2018-06-15T19:49:53.760Z,10.17
2018-06-15T19:52:26.008Z,10.70
2018-06-15T19:54:54.280Z,10.30
2018-06-15T19:57:23.009Z,10.77
2018-06-15T19:59:51.999Z,10.10
2018-06-15T20:02:21.463Z,11.27
2018-06-15T20:04:49.654Z,10.03
2018-06-15T20:07:18.028Z,9.68
2018-06-15T20:09:47.156Z,9.77
2018-06-15T20:12:15.772Z,10.10
2018-06-15T20:15:00.845Z,9.85
2018-06-15T20:17:29.236Z,9.30
2018-06-15T20:19:57.602Z,9.90
2018-06-15T20:22:25.952Z,9.37
2018-06-15T20:30:56.728Z,10.77
2018-06-15T20:33:27.061Z,9.53
2018-06-15T20:46:49.537Z,10.30
2018-06-15T20:52:10.976Z,10.00
2018-06-15T20:54:49.988Z,11.40
2018-06-15T20:57:25.473Z,10.77
2018-06-15T20:59:55.670Z,11.10
2018-06-15T21:02:46.151Z,12.20
2018-06-15T21:05:20.257Z,11.30
2018-06-15T21:07:53.834Z,12.00
2018-06-15T21:10:38.513Z,13.20
2018-06-15T21:13:28.336Z,11.20
2018-06-15T21:16:10.285Z,11.40
2018-06-15T21:18:41.085Z,10.68
2018-06-15T21:21:45.129Z,12.47
2018-06-15T21:24:47.065Z,11.63
2018-06-15T21:27:17.165Z,12.30
2018-06-15T21:29:46.992Z,12.13
2018-06-15T21:32:17.416Z,12.93
2018-06-15T21:34:46.476Z,13.05
2018-06-15T21:37:17.236Z,10.53
2018-06-15T21:39:55.953Z,12.17
2018-06-15T21:42:31.341Z,10.53
2018-06-15T21:50:56.876Z,11.57
2018-06-15T21:56:12.409Z,13.23
2018-06-15T21:58:46.759Z,12.93
2018-06-15T22:02:50.504Z,14.17
2018-06-15T22:05:26.016Z,13.28
2018-06-15T22:07:55.906Z,14.63
2018-06-15T22:10:26.852Z,14.93
2018-06-15T22:16:00.026Z,15.00
2018-06-15T22:18:29.409Z,15.63
2018-06-15T22:21:05.547Z,15.37
2018-06-15T22:23:38.629Z,15.10
2018-06-15T22:26:08.401Z,14.77
2018-06-15T22:28:52.398Z,13.83
2018-06-15T22:31:21.230Z,15.73
2018-06-15T22:33:50.573Z,14.30
2018-06-15T22:36:20.581Z,14.73
2018-06-15T22:38:50.657Z,15.87
2018-06-15T22:41:22.420Z,16.00
2018-06-15T22:46:37.712Z,17.10
2018-06-15T22:49:07.095Z,17.93
2018-06-15T22:51:35.952Z,17.10
2018-06-15T23:28:39.510Z,19.03
2018-06-15T23:31:10.029Z,17.83
2018-06-15T23:33:45.748Z,16.73
2018-06-15T23:36:15.660Z,16.60
2018-06-15T23:38:44.354Z,18.84
2018-06-15T23:41:23.448Z,18.17
2018-06-15T23:44:03.878Z,17.10
2018-06-15T23:46:37.610Z,18.30
2018-06-15T23:49:13.339Z,18.52
2018-06-15T23:51:56.356Z,18.93
2018-06-15T23:54:25.778Z,18.87
2018-06-15T23:56:57.412Z,19.92
2018-06-15T23:59:34.393Z,20.00
